Time;durP1;ratioP1;P1;durP2;ratioP2;P2;SDS_P1;SDS_P2;PMS_P1;PMS_P2;Temp;Humidity;BMP_temperature;BMP_pressure;BME280_temperature;BME280_humidity;BME280_pressure;Samples;Min_cycle;Max_cycle;Signal;HPM_P1;HPM_P2
2022/09/18 00:01:41;;;;;;;6.47;2.27;;;10.90;99.90;;;;;;5082919;28;20473;-81
2022/09/18 00:04:13;;;;;;;5.40;2.00;;;10.90;99.90;;;;;;5082443;28;20453;-82
2022/09/18 00:06:43;;;;;;;9.97;2.60;;;10.90;99.90;;;;;;5082048;28;20445;-82
2022/09/18 00:09:14;;;;;;;7.67;2.63;;;10.90;99.90;;;;;;5082424;28;20452;-81
2022/09/18 00:11:46;;;;;;;5.07;1.87;;;10.80;99.90;;;;;;5080708;28;20469;-81
2022/09/18 00:14:17;;;;;;;7.20;1.97;;;10.80;99.90;;;;;;5081353;28;20491;-81
2022/09/18 00:16:46;;;;;;;7.97;2.40;;;10.80;99.90;;;;;;5080818;28;20437;-80
2022/09/18 00:19:16;;;;;;;8.90;2.30;;;10.80;99.90;;;;;;5080619;28;20547;-82
2022/09/18 00:21:46;;;;;;;7.93;2.30;;;10.80;99.90;;;;;;5082671;28;20449;-82
2022/09/18 00:24:16;;;;;;;11.27;2.10;;;10.80;99.90;;;;;;5081679;28;20965;-82
2022/09/18 00:26:45;;;;;;;9.30;2.30;;;10.80;99.90;;;;;;5083161;28;20452;-82
2022/09/18 00:29:14;;;;;;;7.60;2.20;;;10.80;99.90;;;;;;5085248;28;20457;-82
2022/09/18 00:31:42;;;;;;;8.83;2.80;;;10.70;99.90;;;;;;5085285;28;20462;-82
2022/09/18 00:34:13;;;;;;;9.70;2.00;;;10.70;99.90;;;;;;5085349;28;20472;-83
2022/09/18 00:36:43;;;;;;;9.40;2.80;;;10.70;99.90;;;;;;5084933;28;20486;-82
2022/09/18 00:39:12;;;;;;;6.60;2.50;;;10.70;99.90;;;;;;5084820;28;20492;-82
2022/09/18 00:41:54;;;;;;;7.73;2.43;;;10.70;99.90;;;;;;5083764;28;20973;-84
2022/09/18 00:44:42;;;;;;;8.47;2.00;;;10.70;99.90;;;;;;5082122;28;20448;-83
2022/09/18 00:47:22;;;;;;;7.80;2.27;;;10.70;99.90;;;;;;5086852;28;20971;-81
2022/09/18 00:49:55;;;;;;;8.60;1.87;;;10.70;99.90;;;;;;5087937;28;20442;-81
2022/09/18 00:52:29;;;;;;;8.17;2.47;;;10.70;99.90;;;;;;5087706;28;20817;-83
2022/09/18 00:55:03;;;;;;;11.10;2.37;;;10.70;99.90;;;;;;5089456;28;20417;-81
2022/09/18 00:57:35;;;;;;;9.40;2.40;;;10.70;99.90;;;;;;5088535;28;20540;-82
2022/09/18 01:00:10;;;;;;;6.50;1.80;;;10.70;99.90;;;;;;5086396;28;20532;-83
2022/09/18 01:02:39;;;;;;;5.23;2.20;;;10.70;99.90;;;;;;5084413;28;20550;-82
2022/09/18 01:05:09;;;;;;;8.20;2.40;;;10.70;99.90;;;;;;5085109;28;20529;-82
2022/09/18 01:07:57;;;;;;;6.83;2.00;;;10.70;99.90;;;;;;5084657;28;20445;-82
2022/09/18 01:10:36;;;;;;;6.07;1.83;;;10.70;99.90;;;;;;5085853;28;20536;-81
2022/09/18 01:13:12;;;;;;;8.03;1.90;;;10.70;99.90;;;;;;5085803;28;20460;-82
2022/09/18 01:15:48;;;;;;;9.60;3.27;;;10.70;99.90;;;;;;5084567;28;20527;-82
2022/09/18 01:18:23;;;;;;;7.43;2.33;;;10.70;99.90;;;;;;5084933;28;20441;-82
2022/09/18 01:21:02;;;;;;;9.97;3.10;;;10.70;99.90;;;;;;5083275;28;20861;-81
2022/09/18 01:24:00;;;;;;;10.57;2.63;;;10.70;99.90;;;;;;5085172;28;20425;-81
2022/09/18 01:27:01;;;;;;;5.13;2.00;;;10.70;99.90;;;;;;5051840;28;20870;-82
2022/09/18 01:29:40;;;;;;;9.10;2.60;;;10.70;99.90;;;;;;5064276;28;20452;-82
2022/09/18 01:32:13;;;;;;;5.83;1.60;;;10.70;99.90;;;;;;5083328;28;20480;-83
2022/09/18 01:34:47;;;;;;;5.70;2.07;;;10.70;99.90;;;;;;5083447;28;20445;-82
2022/09/18 01:37:20;;;;;;;6.70;2.03;;;10.70;99.90;;;;;;5082758;28;20954;-82
2022/09/18 01:39:56;;;;;;;6.60;1.70;;;10.70;99.90;;;;;;5083539;28;20457;-82
2022/09/18 01:42:28;;;;;;;8.37;2.10;;;10.60;99.90;;;;;;5083980;28;20480;-82
2022/09/18 01:45:01;;;;;;;6.70;1.87;;;10.60;99.90;;;;;;5084648;28;20502;-82
2022/09/18 01:47:36;;;;;;;4.23;1.90;;;10.60;99.90;;;;;;5084658;28;20449;-82
2022/09/18 01:50:07;;;;;;;6.73;2.00;;;10.60;99.90;;;;;;5082445;28;20441;-82
2022/09/18 01:52:40;;;;;;;4.63;1.60;;;10.60;99.90;;;;;;5082918;28;20468;-82
2022/09/18 01:55:16;;;;;;;5.20;1.77;;;10.60;99.90;;;;;;5084353;28;20455;-82
2022/09/18 01:57:49;;;;;;;7.03;2.23;;;10.50;99.90;;;;;;5083403;28;20445;-82
2022/09/18 02:00:21;;;;;;;5.90;2.00;;;10.50;99.90;;;;;;5083485;28;20488;-82
2022/09/18 02:02:55;;;;;;;7.67;2.27;;;10.50;99.90;;;;;;5084316;28;20997;-83
2022/09/18 02:05:30;;;;;;;8.53;2.37;;;10.50;99.90;;;;;;5085170;28;20449;-81
2022/09/18 02:08:10;;;;;;;6.47;1.50;;;10.50;99.90;;;;;;5093991;28;20429;-82
2022/09/18 02:10:45;;;;;;;8.97;2.00;;;10.50;99.90;;;;;;5099802;28;20448;-82
2022/09/18 02:13:22;;;;;;;7.67;1.93;;;10.50;99.90;;;;;;5099683;28;20432;-81
2022/09/18 02:16:00;;;;;;;6.20;2.20;;;10.40;99.90;;;;;;5091522;28;20555;-82
2022/09/18 02:18:33;;;;;;;7.30;2.13;;;10.40;99.90;;;;;;5090793;28;20429;-84
2022/09/18 02:21:08;;;;;;;5.73;1.70;;;10.40;99.90;;;;;;5090730;28;20476;-83
2022/09/18 02:23:38;;;;;;;6.27;1.97;;;10.40;99.90;;;;;;5090580;28;20441;-82
2022/09/18 02:26:14;;;;;;;7.50;1.90;;;10.40;99.90;;;;;;5090089;28;20445;-81
2022/09/18 02:28:47;;;;;;;7.90;2.00;;;10.30;99.90;;;;;;5088296;28;20433;-81
2022/09/18 02:31:17;;;;;;;7.20;2.10;;;10.30;99.90;;;;;;5089556;28;20467;-82
2022/09/18 02:33:45;;;;;;;7.10;2.20;;;10.30;99.90;;;;;;5089359;28;20498;-82
2022/09/18 02:36:31;;;;;;;6.80;1.70;;;10.30;99.90;;;;;;5089912;28;20453;-82
2022/09/18 02:39:13;;;;;;;7.90;2.07;;;10.30;99.90;;;;;;5088398;28;20438;-83
2022/09/18 02:41:51;;;;;;;10.17;2.30;;;10.30;99.90;;;;;;5088691;28;20496;-80
2022/09/18 02:44:25;;;;;;;8.77;2.20;;;10.20;99.90;;;;;;5087075;28;20959;-83
2022/09/18 02:47:04;;;;;;;6.13;2.33;;;10.20;99.90;;;;;;5085759;28;20452;-82
2022/09/18 02:49:41;;;;;;;8.33;2.67;;;10.20;99.90;;;;;;5085867;28;20437;-81
2022/09/18 02:52:17;;;;;;;8.27;2.60;;;10.20;99.90;;;;;;5086808;28;20987;-83
2022/09/18 02:54:53;;;;;;;6.40;2.00;;;10.20;99.90;;;;;;5089224;28;20827;-82
2022/09/18 02:57:29;;;;;;;8.23;1.97;;;10.20;99.90;;;;;;5085443;28;20449;-82
2022/09/18 03:00:00;;;;;;;7.60;1.90;;;10.20;99.90;;;;;;5085622;28;20444;-82
2022/09/18 03:02:32;;;;;;;6.73;2.80;;;10.20;99.90;;;;;;5085172;28;20994;-81
2022/09/18 03:05:01;;;;;;;9.13;2.40;;;10.10;99.90;;;;;;5084401;28;20473;-82
2022/09/18 03:07:41;;;;;;;11.27;3.00;;;10.10;99.90;;;;;;5088819;28;20448;-82
2022/09/18 03:10:10;;;;;;;6.20;2.00;;;10.10;99.90;;;;;;5086061;28;20452;-82
2022/09/18 03:12:38;;;;;;;8.60;2.17;;;10.10;99.90;;;;;;5085278;28;20476;-82
2022/09/18 03:15:08;;;;;;;7.20;2.43;;;10.10;99.90;;;;;;5085019;28;20478;-82
2022/09/18 03:17:37;;;;;;;7.03;2.37;;;10.00;99.90;;;;;;5084369;28;20453;-82
2022/09/18 03:20:07;;;;;;;8.13;2.10;;;10.00;99.90;;;;;;5085319;28;20483;-82
2022/09/18 03:22:35;;;;;;;9.80;2.30;;;10.00;99.90;;;;;;5083133;28;20469;-82
2022/09/18 03:25:06;;;;;;;8.17;2.40;;;10.00;99.90;;;;;;5085697;28;20441;-82
2022/09/18 03:27:34;;;;;;;6.10;1.97;;;10.00;99.90;;;;;;5083315;28;20508;-82
2022/09/18 03:30:03;;;;;;;6.73;2.07;;;10.00;99.90;;;;;;5083128;28;20464;-82
2022/09/18 03:32:33;;;;;;;6.87;2.07;;;10.00;99.90;;;;;;5084140;28;20519;-83
2022/09/18 03:35:03;;;;;;;7.20;2.00;;;10.10;99.90;;;;;;5085720;28;20796;-83
2022/09/18 03:37:31;;;;;;;7.03;2.63;;;10.00;99.90;;;;;;5084525;28;20479;-82
2022/09/18 03:40:02;;;;;;;6.87;2.07;;;10.10;99.90;;;;;;5084794;28;20443;-83
2022/09/18 03:42:31;;;;;;;10.23;2.70;;;10.10;99.90;;;;;;5083578;28;20496;-82
2022/09/18 03:45:01;;;;;;;7.37;1.90;;;10.20;99.90;;;;;;5083429;28;20544;-83
2022/09/18 03:47:29;;;;;;;6.17;2.20;;;10.20;99.90;;;;;;5083357;28;20471;-83
2022/09/18 03:50:05;;;;;;;7.57;2.07;;;10.10;99.90;;;;;;5083339;28;20545;-82
2022/09/18 03:52:37;;;;;;;9.00;2.60;;;10.10;99.90;;;;;;5082968;28;20461;-82
2022/09/18 03:55:27;;;;;;;6.10;2.17;;;10.10;99.90;;;;;;5083806;28;20449;-82
2022/09/18 03:58:25;;;;;;;7.00;2.10;;;10.10;99.90;;;;;;5100146;28;20531;-83
2022/09/18 04:01:12;;;;;;;5.90;2.20;;;10.10;99.90;;;;;;5087130;28;20555;-83
2022/09/18 04:04:02;;;;;;;4.37;1.93;;;10.10;99.90;;;;;;5087638;28;20437;-82
2022/09/18 04:06:54;;;;;;;8.17;1.93;;;10.10;99.90;;;;;;5086248;28;20445;-82
2022/09/18 04:09:41;;;;;;;6.77;2.30;;;10.10;99.90;;;;;;5087438;28;20494;-82
2022/09/18 04:12:10;;;;;;;5.27;2.10;;;10.20;99.90;;;;;;5085375;28;20469;-82
2022/09/18 04:14:39;;;;;;;6.40;2.13;;;10.10;99.90;;;;;;5084422;28;20453;-82
2022/09/18 04:17:08;;;;;;;7.17;1.80;;;10.20;99.90;;;;;;5085025;28;20524;-83
2022/09/18 04:19:36;;;;;;;8.93;2.47;;;10.20;99.90;;;;;;5085750;28;20457;-82
2022/09/18 04:22:07;;;;;;;5.53;1.87;;;10.10;99.90;;;;;;5091618;28;20477;-83
2022/09/18 04:24:39;;;;;;;10.77;2.80;;;10.00;99.90;;;;;;5091838;28;20469;-83
2022/09/18 04:27:08;;;;;;;6.27;1.90;;;10.10;99.90;;;;;;5090409;28;20449;-82
2022/09/18 04:29:38;;;;;;;7.53;2.13;;;10.00;99.90;;;;;;5091643;28;20456;-82
2022/09/18 04:32:08;;;;;;;5.63;2.13;;;10.00;99.90;;;;;;5089913;28;20469;-83
2022/09/18 04:34:36;;;;;;;6.93;2.33;;;10.00;99.90;;;;;;5089943;28;20467;-82
2022/09/18 04:37:05;;;;;;;7.10;2.73;;;10.00;99.90;;;;;;5089495;28;20485;-82
2022/09/18 04:39:40;;;;;;;8.17;2.37;;;10.10;99.90;;;;;;5088536;28;20966;-82
2022/09/18 04:42:09;;;;;;;10.00;2.87;;;10.00;99.90;;;;;;5091037;28;20478;-82
2022/09/18 04:44:39;;;;;;;6.13;2.47;;;10.00;99.90;;;;;;5088982;28;20448;-83
2022/09/18 04:47:09;;;;;;;7.53;2.03;;;10.00;99.90;;;;;;5088925;28;20437;-82
2022/09/18 04:49:38;;;;;;;8.20;2.20;;;10.00;99.90;;;;;;5088942;28;20793;-83
2022/09/18 04:52:07;;;;;;;8.07;2.00;;;10.00;99.90;;;;;;5088573;28;20481;-83
2022/09/18 04:54:36;;;;;;;7.63;2.57;;;10.00;99.90;;;;;;5088783;28;20449;-83
2022/09/18 04:57:06;;;;;;;8.40;2.33;;;10.00;99.90;;;;;;5087964;28;20448;-82
2022/09/18 04:59:35;;;;;;;5.13;1.87;;;10.00;99.90;;;;;;5088237;28;20761;-82
2022/09/18 05:02:05;;;;;;;7.90;2.00;;;9.90;99.90;;;;;;5088038;28;20884;-83
2022/09/18 05:04:35;;;;;;;7.13;2.00;;;9.90;99.90;;;;;;5088327;28;20444;-83
2022/09/18 05:07:12;;;;;;;15.73;3.20;;;9.90;99.90;;;;;;5088304;28;20433;-83
2022/09/18 05:09:40;;;;;;;6.00;1.70;;;9.90;99.90;;;;;;5087191;28;20449;-83
2022/09/18 05:12:12;;;;;;;7.70;2.00;;;9.90;99.90;;;;;;5087891;28;20464;-83
2022/09/18 05:14:41;;;;;;;6.13;2.07;;;9.90;99.90;;;;;;5087485;28;20441;-84
2022/09/18 05:17:12;;;;;;;6.57;2.03;;;9.90;99.90;;;;;;5087415;28;20803;-83
2022/09/18 05:20:11;;;;;;;7.40;2.13;;;9.90;99.90;;;;;;5091558;28;20446;-84
2022/09/18 05:22:44;;;;;;;5.40;2.07;;;9.90;99.90;;;;;;5088535;28;20469;-82
2022/09/18 05:25:15;;;;;;;5.93;1.80;;;9.80;99.90;;;;;;5087208;28;20429;-83
2022/09/18 05:27:53;;;;;;;6.97;2.17;;;9.80;99.90;;;;;;5088007;28;20520;-83
2022/09/18 05:30:24;;;;;;;8.50;2.33;;;9.70;99.90;;;;;;5086758;28;20456;-83
2022/09/18 05:32:58;;;;;;;8.03;2.73;;;9.80;99.90;;;;;;5085944;28;20495;-83
2022/09/18 05:35:31;;;;;;;8.20;2.40;;;9.80;99.90;;;;;;5086864;28;20445;-82
2022/09/18 05:38:00;;;;;;;11.47;2.53;;;9.80;99.90;;;;;;5086351;28;20449;-82
2022/09/18 05:40:33;;;;;;;6.67;2.30;;;9.70;99.90;;;;;;5086688;28;20456;-82
2022/09/18 05:43:03;;;;;;;7.67;2.80;;;9.70;99.90;;;;;;5086854;28;20469;-83
2022/09/18 05:45:34;;;;;;;6.50;2.50;;;9.80;99.90;;;;;;5086643;28;20846;-83
2022/09/18 05:48:08;;;;;;;10.93;2.83;;;9.80;99.90;;;;;;5086750;28;20440;-81
2022/09/18 05:50:38;;;;;;;7.50;2.33;;;9.80;99.90;;;;;;5087498;28;20459;-82
2022/09/18 05:53:12;;;;;;;8.30;2.30;;;9.80;99.90;;;;;;5086277;28;20461;-82
2022/09/18 05:55:59;;;;;;;8.80;2.40;;;9.90;99.90;;;;;;5087811;28;20445;-82
2022/09/18 05:58:30;;;;;;;7.47;2.73;;;9.90;99.90;;;;;;5088283;28;20433;-83
2022/09/18 06:01:00;;;;;;;4.87;2.50;;;10.00;99.90;;;;;;5087212;28;20451;-83
2022/09/18 06:03:43;;;;;;;7.20;2.70;;;10.00;99.90;;;;;;5086709;28;20438;-82
2022/09/18 06:06:13;;;;;;;5.33;2.40;;;10.10;99.90;;;;;;5085822;28;20457;-82
2022/09/18 06:08:41;;;;;;;7.80;2.73;;;10.10;99.90;;;;;;5086075;28;20540;-83
2022/09/18 06:11:10;;;;;;;8.27;2.43;;;10.20;99.90;;;;;;5085799;28;20507;-82
2022/09/18 06:13:40;;;;;;;15.20;2.90;;;10.20;99.90;;;;;;5083992;28;20444;-82
2022/09/18 06:16:09;;;;;;;9.10;2.70;;;10.20;99.90;;;;;;5085665;28;20452;-82
2022/09/18 06:19:01;;;;;;;7.80;2.20;;;10.30;99.90;;;;;;5085806;28;20429;-84
2022/09/18 06:21:29;;;;;;;9.97;2.40;;;10.30;99.90;;;;;;5083385;28;20831;-83
2022/09/18 06:23:58;;;;;;;8.73;3.17;;;10.30;99.90;;;;;;5085123;28;20448;-83
2022/09/18 06:26:36;;;;;;;7.73;2.30;;;10.30;99.90;;;;;;5083674;28;20453;-83
2022/09/18 06:29:10;;;;;;;6.90;1.90;;;10.30;99.90;;;;;;5081714;28;21011;-82
2022/09/18 06:31:47;;;;;;;8.07;2.60;;;10.50;99.90;;;;;;5083302;28;20468;-83
2022/09/18 06:34:22;;;;;;;6.90;2.40;;;10.40;99.90;;;;;;5081248;28;20440;-83
2022/09/18 06:36:54;;;;;;;10.60;2.73;;;10.40;99.90;;;;;;5080545;28;20453;-83
2022/09/18 06:39:50;;;;;;;6.80;2.57;;;10.50;99.90;;;;;;5087295;28;20446;-82
2022/09/18 06:42:28;;;;;;;6.07;2.50;;;10.50;99.90;;;;;;5077114;28;20501;-83
2022/09/18 06:45:08;;;;;;;6.27;1.97;;;10.50;99.90;;;;;;5075558;28;20480;-83
2022/09/18 06:47:36;;;;;;;6.27;2.40;;;10.60;99.90;;;;;;5075972;28;20455;-84
2022/09/18 06:50:05;;;;;;;5.57;2.27;;;10.60;99.90;;;;;;5076132;28;20445;-82
2022/09/18 06:52:34;;;;;;;8.00;1.90;;;10.60;99.90;;;;;;5075738;28;20962;-83
2022/09/18 06:55:05;;;;;;;5.80;2.70;;;10.70;99.90;;;;;;5075453;28;20441;-82
2022/09/18 06:57:34;;;;;;;10.60;2.47;;;10.70;99.90;;;;;;5075404;28;20481;-84
2022/09/18 07:00:02;;;;;;;8.17;1.93;;;10.80;99.90;;;;;;5075753;28;20536;-83
2022/09/18 07:02:38;;;;;;;9.23;2.20;;;10.80;99.90;;;;;;5075573;28;20472;-83
2022/09/18 07:05:33;;;;;;;6.70;2.03;;;10.80;99.90;;;;;;5084069;28;20437;-82
2022/09/18 07:08:01;;;;;;;6.07;2.03;;;10.90;99.90;;;;;;5076265;28;20526;-83
2022/09/18 07:10:34;;;;;;;6.30;2.27;;;10.90;99.90;;;;;;5076950;28;20496;-82
2022/09/18 07:13:03;;;;;;;5.97;1.73;;;11.00;99.90;;;;;;5080062;28;20493;-82
2022/09/18 07:15:38;;;;;;;4.60;1.83;;;11.10;99.90;;;;;;5080209;28;21021;-81
2022/09/18 07:18:09;;;;;;;6.10;1.73;;;11.10;99.90;;;;;;5077021;28;20453;-86
2022/09/18 07:20:38;;;;;;;4.53;2.00;;;11.20;99.90;;;;;;5085092;28;20875;-82
2022/09/18 07:23:07;;;;;;;10.70;2.37;;;11.20;99.90;;;;;;5080146;28;20556;-85
2022/09/18 07:25:47;;;;;;;6.23;1.77;;;11.20;99.90;;;;;;5079219;28;20452;-82
2022/09/18 07:28:15;;;;;;;6.40;1.90;;;11.20;99.90;;;;;;5082402;28;20449;-83
2022/09/18 07:30:55;;;;;;;6.27;1.60;;;11.20;99.90;;;;;;5081420;28;20453;-82
2022/09/18 07:33:25;;;;;;;6.03;1.87;;;11.30;99.90;;;;;;5080580;28;20459;-83
2022/09/18 07:35:54;;;;;;;6.03;1.77;;;11.40;99.90;;;;;;5077507;28;20472;-81
2022/09/18 07:38:23;;;;;;;5.27;1.80;;;11.40;99.90;;;;;;5080591;28;20453;-82
2022/09/18 07:40:55;;;;;;;6.13;1.63;;;11.50;99.90;;;;;;5082128;28;20875;-82
2022/09/18 07:43:29;;;;;;;5.27;1.70;;;11.50;99.90;;;;;;5080254;28;20548;-82
2022/09/18 07:45:59;;;;;;;8.70;2.57;;;11.60;99.90;;;;;;5079671;28;20449;-82
2022/09/18 07:48:31;;;;;;;7.80;2.23;;;11.60;99.90;;;;;;5080416;28;20456;-81
2022/09/18 07:51:14;;;;;;;6.70;1.90;;;11.70;99.90;;;;;;5081529;28;20468;-81
2022/09/18 07:53:47;;;;;;;7.50;2.07;;;11.90;99.90;;;;;;5079863;28;20512;-82
2022/09/18 07:56:21;;;;;;;7.60;2.10;;;11.90;99.90;;;;;;5076768;28;20451;-82
2022/09/18 07:58:52;;;;;;;6.63;2.00;;;12.00;99.90;;;;;;5081388;28;20446;-81
2022/09/18 08:01:25;;;;;;;4.73;2.20;;;12.10;99.90;;;;;;5078784;28;20461;-82
2022/09/18 08:03:57;;;;;;;7.13;1.90;;;12.10;99.90;;;;;;5079488;28;20465;-81
2022/09/18 08:07:02;;;;;;;5.17;2.37;;;12.20;99.90;;;;;;5086380;28;20437;-81
2022/09/18 08:09:54;;;;;;;6.47;1.60;;;12.20;99.90;;;;;;5081068;28;20445;-81
2022/09/18 08:12:37;;;;;;;6.13;2.07;;;12.30;99.90;;;;;;5079846;28;20472;-83
2022/09/18 08:15:29;;;;;;;5.77;1.53;;;12.30;99.90;;;;;;5090502;28;20446;-83
2022/09/18 08:18:32;;;;;;;6.50;1.50;;;12.30;99.90;;;;;;5079188;28;20432;-84
2022/09/18 08:21:12;;;;;;;6.93;1.80;;;12.40;99.90;;;;;;5078277;28;20495;-83
2022/09/18 08:23:47;;;;;;;6.57;2.10;;;12.40;99.90;;;;;;5080376;28;20570;-84
2022/09/18 08:26:15;;;;;;;5.57;2.10;;;12.40;99.90;;;;;;5080465;28;20445;-82
2022/09/18 08:28:52;;;;;;;6.73;2.50;;;12.50;99.90;;;;;;5080197;28;20473;-82
2022/09/18 08:31:21;;;;;;;7.40;1.90;;;12.50;99.90;;;;;;5080360;28;20496;-82
2022/09/18 08:33:54;;;;;;;6.80;1.40;;;12.60;99.90;;;;;;5080337;28;20860;-83
2022/09/18 08:36:24;;;;;;;4.53;1.27;;;12.70;99.90;;;;;;5081616;28;20475;-82
2022/09/18 08:39:02;;;;;;;4.93;1.53;;;12.90;99.90;;;;;;5080873;28;20888;-82
2022/09/18 08:42:07;;;;;;;8.07;1.80;;;13.00;99.90;;;;;;5079240;28;20469;-82
2022/09/18 08:44:46;;;;;;;6.37;1.67;;;13.20;99.90;;;;;;5079721;28;20469;-82
2022/09/18 08:47:22;;;;;;;5.03;1.50;;;13.20;99.90;;;;;;5078899;28;20441;-81
2022/09/18 08:49:58;;;;;;;5.20;1.50;;;13.20;99.90;;;;;;5077454;28;20499;-82
2022/09/18 08:52:32;;;;;;;7.03;2.07;;;13.20;99.90;;;;;;5080211;28;20460;-83
2022/09/18 08:55:20;;;;;;;4.07;1.70;;;13.20;99.90;;;;;;5078452;28;20468;-81
2022/09/18 08:58:11;;;;;;;4.43;1.60;;;13.10;99.90;;;;;;5079274;28;20536;-81
2022/09/18 09:00:48;;;;;;;5.40;1.70;;;13.20;99.90;;;;;;5080712;28;20798;-80
2022/09/18 09:03:49;;;;;;;5.20;1.93;;;13.20;99.90;;;;;;5080047;28;20524;-81
2022/09/18 09:06:30;;;;;;;8.73;1.80;;;13.20;99.90;;;;;;5077820;28;20958;-81
2022/09/18 09:09:28;;;;;;;6.07;2.13;;;13.20;99.90;;;;;;5081124;28;20825;-83
2022/09/18 09:12:06;;;;;;;3.53;1.50;;;13.30;99.90;;;;;;5081392;28;20846;-82
2022/09/18 09:15:01;;;;;;;5.20;1.67;;;13.30;99.90;;;;;;5081528;28;20480;-83
2022/09/18 09:17:39;;;;;;;7.60;2.10;;;13.30;99.90;;;;;;5082067;28;20982;-82
2022/09/18 09:20:21;;;;;;;6.50;1.90;;;13.40;99.90;;;;;;5081997;28;20861;-82
2022/09/18 09:23:01;;;;;;;3.87;1.57;;;13.50;99.90;;;;;;5080823;28;20471;-82
2022/09/18 09:25:39;;;;;;;5.13;1.70;;;13.50;99.90;;;;;;5079821;28;20494;-82
2022/09/18 09:28:16;;;;;;;10.10;2.30;;;13.50;99.90;;;;;;5081690;28;20479;-82
2022/09/18 09:31:15;;;;;;;6.17;1.97;;;13.60;99.90;;;;;;5083676;28;20982;-82
2022/09/18 09:34:09;;;;;;;6.90;1.43;;;13.60;99.90;;;;;;5087977;28;20432;-84
2022/09/18 09:37:14;;;;;;;5.10;1.40;;;13.70;99.90;;;;;;5090880;28;20460;-82
2022/09/18 09:39:48;;;;;;;6.00;2.37;;;13.80;99.90;;;;;;5087527;28;20474;-82
2022/09/18 09:42:21;;;;;;;4.63;1.90;;;13.90;99.90;;;;;;5086706;28;20572;-81
2022/09/18 09:44:55;;;;;;;6.30;1.60;;;14.00;99.90;;;;;;5086354;28;20493;-82
2022/09/18 09:47:30;;;;;;;4.80;1.80;;;14.10;99.90;;;;;;5089657;28;20456;-82
2022/09/18 09:50:25;;;;;;;5.33;2.73;;;14.20;99.90;;;;;;5083344;28;20822;-83
2022/09/18 09:52:58;;;;;;;5.23;1.87;;;14.30;99.90;;;;;;5077016;28;20469;-82
2022/09/18 09:55:30;;;;;;;5.57;1.70;;;14.40;99.90;;;;;;5075201;28;20861;-83
2022/09/18 09:58:11;;;;;;;5.13;1.47;;;14.40;99.90;;;;;;5075671;28;20438;-84
2022/09/18 10:00:48;;;;;;;5.87;1.50;;;14.40;99.90;;;;;;5077127;28;20480;-83
2022/09/18 10:03:31;;;;;;;5.03;1.30;;;14.30;99.90;;;;;;5076034;28;20440;-82
2022/09/18 10:06:12;;;;;;;3.77;1.50;;;14.30;99.90;;;;;;5075840;28;20965;-83
2022/09/18 10:08:46;;;;;;;4.93;1.77;;;14.40;99.90;;;;;;5076071;28;20441;-83
2022/09/18 10:11:17;;;;;;;5.67;1.43;;;14.40;99.90;;;;;;5075591;28;20820;-82
2022/09/18 10:14:01;;;;;;;4.93;1.47;;;14.50;99.90;;;;;;5075576;28;20784;-84
2022/09/18 10:16:33;;;;;;;5.67;1.57;;;14.60;99.90;;;;;;5075515;28;20483;-83
2022/09/18 10:19:04;;;;;;;4.70;1.90;;;14.70;99.90;;;;;;5080874;28;20445;-83
2022/09/18 10:21:36;;;;;;;4.17;1.93;;;14.70;99.90;;;;;;5079277;28;20488;-81
2022/09/18 10:24:14;;;;;;;4.07;1.60;;;14.70;99.90;;;;;;5075627;28;20461;-82
2022/09/18 10:26:48;;;;;;;4.43;1.60;;;14.80;99.90;;;;;;5076219;28;20489;-82
2022/09/18 10:29:29;;;;;;;4.77;1.60;;;14.80;99.90;;;;;;5075845;28;20456;-82
2022/09/18 10:32:05;;;;;;;4.33;1.53;;;14.80;99.90;;;;;;5075914;28;20450;-82
2022/09/18 10:34:44;;;;;;;5.17;1.80;;;14.70;99.90;;;;;;5076649;28;20444;-83
2022/09/18 10:37:17;;;;;;;6.20;2.43;;;14.70;99.90;;;;;;5077498;28;20455;-85
2022/09/18 10:39:51;;;;;;;4.63;1.43;;;14.60;99.90;;;;;;5079115;28;20487;-85
2022/09/18 10:42:27;;;;;;;3.63;1.60;;;14.60;99.90;;;;;;5080591;28;20453;-84
2022/09/18 10:45:23;;;;;;;5.30;1.80;;;14.60;99.90;;;;;;5077877;28;20465;-84
2022/09/18 10:48:21;;;;;;;3.80;1.40;;;14.60;99.90;;;;;;5076784;28;20792;-83
2022/09/18 10:50:53;;;;;;;4.47;1.70;;;14.60;99.90;;;;;;5076519;28;20965;-83
2022/09/18 10:53:31;;;;;;;5.43;1.40;;;14.70;99.90;;;;;;5076917;28;20483;-84
2022/09/18 10:56:21;;;;;;;5.97;1.90;;;14.60;99.90;;;;;;5078443;28;20934;-82
2022/09/18 10:59:14;;;;;;;4.50;1.30;;;14.60;99.90;;;;;;5082907;28;20801;-82
2022/09/18 11:01:57;;;;;;;3.83;1.20;;;14.60;99.90;;;;;;5082600;28;20469;-83
2022/09/18 11:04:35;;;;;;;4.60;1.30;;;14.50;99.90;;;;;;5084302;28;20443;-82
2022/09/18 11:07:39;;;;;;;4.37;1.40;;;14.50;99.90;;;;;;5083397;28;20452;-82
2022/09/18 11:10:13;;;;;;;4.93;1.50;;;14.50;99.90;;;;;;5081507;28;20448;-83
2022/09/18 11:13:02;;;;;;;5.67;1.43;;;14.50;99.90;;;;;;5081552;28;20517;-81
2022/09/18 11:15:54;;;;;;;4.80;1.30;;;14.50;99.90;;;;;;5081737;28;20516;-82
2022/09/18 11:18:31;;;;;;;4.43;1.50;;;14.60;99.90;;;;;;5080769;28;20923;-82
2022/09/18 11:21:08;;;;;;;3.10;1.50;;;14.70;99.90;;;;;;5075411;28;20457;-84
2022/09/18 11:23:37;;;;;;;3.43;1.30;;;14.80;99.90;;;;;;5075031;28;20453;-81
2022/09/18 11:26:29;;;;;;;2.90;1.00;;;14.70;99.90;;;;;;5074690;28;20469;-83
2022/09/18 11:29:06;;;;;;;6.03;1.60;;;14.70;99.90;;;;;;5075198;28;20465;-84
2022/09/18 11:31:41;;;;;;;5.50;1.50;;;14.60;99.90;;;;;;5074914;28;20435;-83
2022/09/18 11:34:20;;;;;;;4.00;1.40;;;14.50;99.90;;;;;;5076126;28;20448;-86
2022/09/18 11:36:53;;;;;;;5.20;1.37;;;14.50;99.90;;;;;;5081595;28;20938;-81
2022/09/18 11:39:26;;;;;;;3.00;1.63;;;14.50;99.90;;;;;;5081989;28;20441;-82
2022/09/18 11:41:55;;;;;;;2.90;1.33;;;14.50;99.90;;;;;;5081658;28;20496;-85
2022/09/18 11:44:27;;;;;;;4.37;1.60;;;14.50;99.90;;;;;;5079416;28;20443;-82
2022/09/18 11:47:19;;;;;;;5.43;1.83;;;14.50;99.90;;;;;;5080535;28;20787;-82
2022/09/18 11:49:54;;;;;;;3.93;1.00;;;14.50;99.90;;;;;;5075635;28;20441;-84
2022/09/18 11:52:29;;;;;;;2.17;0.97;;;14.60;99.90;;;;;;5074819;28;20533;-83
2022/09/18 11:55:12;;;;;;;4.47;1.10;;;14.60;99.90;;;;;;5075768;28;20434;-84
2022/09/18 11:57:45;;;;;;;3.60;1.20;;;14.60;99.90;;;;;;5076317;28;20429;-81
2022/09/18 12:00:17;;;;;;;2.67;1.03;;;14.70;99.90;;;;;;5075815;28;20438;-82
2022/09/18 12:02:59;;;;;;;2.70;1.10;;;14.80;99.90;;;;;;5075338;28;20472;-83
2022/09/18 12:05:36;;;;;;;4.23;1.47;;;14.80;99.90;;;;;;5074524;28;20909;-82
2022/09/18 12:08:17;;;;;;;3.80;1.03;;;15.00;99.90;;;;;;5075374;28;20448;-80
2022/09/18 12:10:57;;;;;;;5.47;1.40;;;15.10;99.90;;;;;;5075221;28;20449;-82
2022/09/18 12:13:47;;;;;;;3.37;1.30;;;15.20;99.90;;;;;;5075339;28;20395;-83
2022/09/18 12:16:21;;;;;;;4.47;1.23;;;15.30;99.90;;;;;;5075367;28;20424;-79
2022/09/18 12:18:58;;;;;;;4.20;1.80;;;15.40;99.90;;;;;;5074592;28;20850;-81
2022/09/18 12:21:42;;;;;;;4.07;1.20;;;15.40;99.90;;;;;;5074936;28;20526;-82
2022/09/18 12:24:14;;;;;;;3.53;1.20;;;15.50;99.90;;;;;;5075414;28;20440;-83
2022/09/18 12:26:52;;;;;;;4.70;2.00;;;15.50;99.90;;;;;;5075201;28;20448;-83
2022/09/18 12:29:33;;;;;;;6.43;1.77;;;15.50;99.90;;;;;;5073773;28;20463;-83
2022/09/18 12:32:09;;;;;;;3.50;1.20;;;15.60;99.90;;;;;;5075401;28;20452;-83
2022/09/18 12:34:49;;;;;;;11.53;2.00;;;15.70;99.90;;;;;;5075304;28;20540;-84
2022/09/18 12:37:45;;;;;;;3.00;1.10;;;15.60;99.90;;;;;;5074063;28;20412;-85
2022/09/18 12:40:39;;;;;;;4.17;1.60;;;15.60;99.90;;;;;;5073112;28;20411;-82
2022/09/18 12:43:34;;;;;;;3.17;1.10;;;15.40;99.90;;;;;;5081849;28;20443;-85
2022/09/18 12:46:22;;;;;;;4.20;1.23;;;15.20;99.90;;;;;;5079643;28;20544;-86
2022/09/18 12:49:15;;;;;;;4.50;1.50;;;15.00;99.90;;;;;;5078544;28;20412;-84
2022/09/18 12:51:46;;;;;;;4.27;1.73;;;14.70;99.90;;;;;;5065179;28;20473;-86
2022/09/18 12:54:45;;;;;;;4.00;1.50;;;14.50;99.90;;;;;;5079879;28;20498;-84
2022/09/18 12:57:29;;;;;;;4.80;1.60;;;14.30;99.90;;;;;;5079724;28;20817;-86
2022/09/18 13:00:02;;;;;;;7.13;2.60;;;14.20;99.90;;;;;;5078119;28;20440;-85
2022/09/18 13:02:43;;;;;;;8.43;1.80;;;14.10;99.90;;;;;;5077890;28;20472;-86
2022/09/18 13:05:20;;;;;;;6.30;2.03;;;14.10;99.90;;;;;;5078740;28;20510;-86
2022/09/18 13:07:51;;;;;;;3.57;1.30;;;14.10;99.90;;;;;;5078179;28;20444;-84
2022/09/18 13:10:25;;;;;;;5.10;1.60;;;14.20;99.90;;;;;;5078124;28;20441;-85
2022/09/18 13:12:59;;;;;;;6.63;1.73;;;14.20;99.90;;;;;;5079913;28;20510;-85
2022/09/18 13:15:33;;;;;;;4.53;1.33;;;14.30;99.90;;;;;;5078435;28;20449;-83
2022/09/18 13:18:11;;;;;;;5.70;1.30;;;14.30;99.90;;;;;;5078531;28;20473;-85
2022/09/18 13:20:42;;;;;;;5.63;1.40;;;14.40;99.90;;;;;;5077481;28;20441;-84
2022/09/18 13:23:17;;;;;;;4.53;1.33;;;14.50;99.90;;;;;;5078018;28;20460;-84
2022/09/18 13:25:50;;;;;;;5.57;1.23;;;14.60;99.90;;;;;;5080337;28;20510;-86
2022/09/18 13:28:21;;;;;;;7.30;1.70;;;14.60;99.90;;;;;;5081954;28;20459;-84
2022/09/18 13:31:23;;;;;;;5.73;1.67;;;14.70;99.90;;;;;;5078009;28;20491;-85
2022/09/18 13:33:54;;;;;;;5.97;1.70;;;14.80;99.90;;;;;;5077090;28;20441;-85
2022/09/18 13:36:25;;;;;;;5.70;1.57;;;14.90;99.90;;;;;;5076702;28;20465;-84